Time;durP1;ratioP1;P1;durP2;ratioP2;P2;SDS_P1;SDS_P2;PMS_P1;PMS_P2;Temp;Humidity;BMP_temperature;BMP_pressure;BME280_temperature;BME280_humidity;BME280_pressure;Samples;Min_cycle;Max_cycle;Signal;HPM_P1;HPM_P2
2021/06/03 00:01:13;;;;;;;;;;;;;;;11.83;55.18;98859.98;1785765;79;24474;-91
2021/06/03 00:03:41;;;;;;;;;;;;;;;11.69;55.22;98866.11;1781949;79;20222;-90
2021/06/03 00:06:09;;;;;;;;;;;;;;;11.60;55.33;98860.66;1777649;79;25293;-88
2021/06/03 00:08:54;;;;;;;;;;;;;;;11.53;55.39;98868.55;1781144;79;20179;-88
2021/06/03 00:11:22;;;;;;;;;;;;;;;11.43;55.51;98869.64;1787304;79;21173;-88
2021/06/03 00:13:49;;;;;;;;;;;;;;;11.36;55.66;98868.83;1782980;79;25377;-88
2021/06/03 00:16:16;;;;;;;;;;;;;;;11.29;55.82;98871.84;1779259;79;20181;-88
2021/06/03 00:18:43;;;;;;;;;;;;;;;11.33;55.97;98871.20;1784904;79;24620;-88
2021/06/03 00:21:10;;;;;;;;;;;;;;;11.29;56.10;98874.47;1779052;79;21983;-88
2021/06/03 00:23:36;;;;;;;;;;;;;;;11.27;56.21;98864.58;1780687;79;25988;-86
2021/06/03 00:26:02;;;;;;;;;;;;;;;11.42;56.33;98867.12;1780858;79;24528;-85
2021/06/03 00:28:28;;;;;;;;;;;;;;;11.47;56.43;98870.27;1780520;79;20448;-85
2021/06/03 00:30:55;;;;;;;;;;;;;;;11.46;56.50;98862.03;1720816;82;24413;-85
2021/06/03 00:33:24;;;;;;;;;;;;;;;11.49;56.54;98865.31;1726012;82;21969;-85
2021/06/03 00:35:49;;;;;;;;;;;;;;;11.48;56.59;98865.41;1766584;80;26223;-85
2021/06/03 00:38:15;;;;;;;;;;;;;;;11.29;56.60;98863.17;1720003;82;20297;-86
2021/06/03 00:40:41;;;;;;;;;;;;;;;11.14;56.64;98864.16;1721194;82;20474;-85
2021/06/03 00:43:07;;;;;;;;;;;;;;;11.13;56.74;98864.63;1721312;82;20274;-90
2021/06/03 00:45:35;;;;;;;;;;;;;;;11.21;56.83;98863.67;1725541;82;21959;-88
2021/06/03 00:48:01;;;;;;;;;;;;;;;11.28;56.94;98861.02;1763217;80;26072;-90
2021/06/03 00:50:29;;;;;;;;;;;;;;;11.35;57.05;98862.75;1768430;81;24382;-88
2021/06/03 00:52:55;;;;;;;;;;;;;;;11.35;57.12;98861.94;1744925;81;20205;-89
2021/06/03 00:55:21;;;;;;;;;;;;;;;11.22;57.16;98856.19;1721582;82;20277;-89
2021/06/03 00:57:47;;;;;;;;;;;;;;;11.10;57.21;98863.53;1724991;82;21929;-90
2021/06/03 01:00:14;;;;;;;;;;;;;;;11.01;57.28;98856.75;1707688;83;26028;-90
2021/06/03 01:02:40;;;;;;;;;;;;;;;11.03;57.40;98860.09;1701987;83;24519;-90
2021/06/03 01:05:15;;;;;;;;;;;;;;;10.97;57.47;98865.71;1708581;83;20899;-90
2021/06/03 01:07:41;;;;;;;;;;;;;;;11.04;57.57;98861.30;1766937;80;24478;-90
2021/06/03 01:10:13;;;;;;;;;;;;;;;10.96;57.64;98860.98;1763255;80;22132;-89
2021/06/03 01:12:44;;;;;;;;;;;;;;;10.89;57.71;98860.52;1766817;80;26189;-90
2021/06/03 01:15:11;;;;;;;;;;;;;;;10.95;57.80;98863.69;1766916;80;24494;-90
2021/06/03 01:17:47;;;;;;;;;;;;;;;10.92;57.87;98864.70;1771921;80;20247;-91
2021/06/03 01:20:13;;;;;;;;;;;;;;;10.84;57.96;98865.69;1766522;80;24678;-86
2021/06/03 01:22:53;;;;;;;;;;;;;;;10.74;58.02;98873.75;1719319;82;22029;-86
2021/06/03 01:25:22;;;;;;;;;;;;;;;10.70;58.13;98872.25;1616169;87;26115;-86
2021/06/03 01:27:49;;;;;;;;;;;;;;;10.82;58.23;98877.55;1681548;80;24423;-87
2021/06/03 01:30:26;;;;;;;;;;;;;;;10.96;58.35;98875.38;1769690;80;20868;-85
2021/06/03 01:32:56;;;;;;;;;;;;;;;10.95;58.39;98875.00;1742558;80;25345;-86
2021/06/03 01:35:24;;;;;;;;;;;;;;;10.77;58.40;98873.55;1740858;82;22082;-86
2021/06/03 01:37:50;;;;;;;;;;;;;;;10.65;58.43;98871.23;1742063;80;25973;-86
2021/06/03 01:40:17;;;;;;;;;;;;;;;10.70;58.50;98873.55;1739259;82;24463;-85
2021/06/03 01:42:44;;;;;;;;;;;;;;;10.77;58.61;98872.23;1741383;81;20328;-85
2021/06/03 01:45:11;;;;;;;;;;;;;;;10.67;58.68;98871.15;1739346;82;24597;-89
2021/06/03 01:47:37;;;;;;;;;;;;;;;10.53;58.72;98869.88;1741396;81;22033;-88
2021/06/03 01:50:20;;;;;;;;;;;;;;;10.40;58.78;98874.56;1736358;81;26038;-89
2021/06/03 01:52:47;;;;;;;;;;;;;;;10.32;58.87;98879.87;1741648;82;24284;-91
2021/06/03 01:55:14;;;;;;;;;;;;;;;10.25;58.97;98885.13;1742150;81;20306;-90
2021/06/03 01:57:40;;;;;;;;;;;;;;;10.31;59.10;98886.06;1742528;81;24541;-91
2021/06/03 02:00:25;;;;;;;;;;;;;;;10.44;59.22;98883.89;1740390;82;21928;-91
2021/06/03 02:02:53;;;;;;;;;;;;;;;10.51;59.34;98886.13;1740277;81;26693;-85
2021/06/03 02:05:33;;;;;;;;;;;;;;;10.48;59.43;98880.61;1738390;81;24420;-90
2021/06/03 02:08:02;;;;;;;;;;;;;;;10.45;59.50;98885.58;1742049;82;20473;-90
2021/06/03 02:10:31;;;;;;;;;;;;;;;10.38;59.54;98880.81;1742215;81;24753;-90
2021/06/03 02:13:13;;;;;;;;;;;;;;;10.42;59.60;98886.22;1742457;81;22002;-91
2021/06/03 02:15:43;;;;;;;;;;;;;;;10.53;59.65;98890.31;1742167;81;26623;-90
2021/06/03 02:18:12;;;;;;;;;;;;;;;10.58;59.71;98886.98;1740866;80;23953;-89
2021/06/03 02:20:43;;;;;;;;;;;;;;;10.62;59.73;98886.30;1736326;81;20292;-89
2021/06/03 02:23:07;;;;;;;;;;;;;;;10.67;59.78;98885.55;1738592;82;24782;-89
2021/06/03 02:25:36;;;;;;;;;;;;;;;10.63;59.82;98886.22;1741356;81;20265;-89
2021/06/03 02:28:03;;;;;;;;;;;;;;;10.66;59.87;98887.31;1737914;82;26154;-87
2021/06/03 02:30:31;;;;;;;;;;;;;;;10.70;59.87;98879.63;1735183;82;23897;-88
2021/06/03 02:32:57;;;;;;;;;;;;;;;10.55;59.88;98884.53;1767756;80;20230;-88
2021/06/03 02:35:23;;;;;;;;;;;;;;;10.34;59.85;98883.25;1774071;80;24544;-88
2021/06/03 02:37:49;;;;;;;;;;;;;;;10.15;59.85;98886.11;1775437;80;21939;-86
2021/06/03 02:40:23;;;;;;;;;;;;;;;10.02;59.89;98885.19;1778950;80;25984;-92
2021/06/03 02:42:50;;;;;;;;;;;;;;;9.94;59.96;98882.17;1713472;83;24492;-90
2021/06/03 02:45:18;;;;;;;;;;;;;;;10.01;60.08;98881.73;1728437;82;20184;-86
2021/06/03 02:47:44;;;;;;;;;;;;;;;10.00;60.18;98885.27;1712966;82;24880;-85
2021/06/03 02:50:12;;;;;;;;;;;;;;;10.09;60.28;98889.13;1718022;83;22843;-85
2021/06/03 02:52:39;;;;;;;;;;;;;;;10.15;60.39;98888.72;1719860;82;25980;-84
2021/06/03 02:55:06;;;;;;;;;;;;;;;10.18;60.46;98891.66;1719558;82;25843;-88
2021/06/03 02:57:32;;;;;;;;;;;;;;;10.15;60.50;98895.26;1719897;82;20168;-88
2021/06/03 02:59:59;;;;;;;;;;;;;;;10.12;60.53;98898.54;1723791;82;24515;-87
2021/06/03 03:02:25;;;;;;;;;;;;;;;10.03;60.57;98899.95;1718097;82;21908;-84
2021/06/03 03:04:55;;;;;;;;;;;;;;;9.89;60.58;98901.22;1721866;82;25960;-85
2021/06/03 03:07:19;;;;;;;;;;;;;;;9.75;60.63;98903.83;1770036;80;25381;-85
2021/06/03 03:09:45;;;;;;;;;;;;;;;9.64;60.68;98911.83;1772514;80;20311;-84
2021/06/03 03:12:11;;;;;;;;;;;;;;;9.58;60.78;98905.66;1773356;80;24777;-84
2021/06/03 03:14:37;;;;;;;;;;;;;;;9.55;60.89;98906.27;1778674;80;21377;-84
2021/06/03 03:17:06;;;;;;;;;;;;;;;9.55;61.04;98910.19;1772364;80;25961;-84
2021/06/03 03:19:32;;;;;;;;;;;;;;;9.55;61.19;98912.34;1709781;83;24273;-84
2021/06/03 03:21:59;;;;;;;;;;;;;;;9.55;61.29;98918.03;1697554;82;20326;-85
2021/06/03 03:24:25;;;;;;;;;;;;;;;9.55;61.42;98915.42;1725453;83;24607;-85
2021/06/03 03:26:51;;;;;;;;;;;;;;;9.58;61.53;98915.27;1774280;80;22067;-86
2021/06/03 03:29:17;;;;;;;;;;;;;;;9.65;61.66;98911.37;1771934;79;25942;-85
2021/06/03 03:31:43;;;;;;;;;;;;;;;9.68;61.79;98915.56;1772449;79;24432;-87
2021/06/03 03:34:09;;;;;;;;;;;;;;;9.82;61.91;98910.37;1771105;79;20256;-85
2021/06/03 03:36:37;;;;;;;;;;;;;;;9.99;62.02;98918.03;1779203;79;24624;-86
2021/06/03 03:39:05;;;;;;;;;;;;;;;10.11;62.13;98916.46;1774475;79;23461;-86
2021/06/03 03:41:34;;;;;;;;;;;;;;;10.20;62.18;98918.08;1781043;79;26127;-86
2021/06/03 03:44:00;;;;;;;;;;;;;;;10.29;62.23;98925.39;1775860;79;24407;-86
2021/06/03 03:46:27;;;;;;;;;;;;;;;10.40;62.28;98927.35;1777470;79;20527;-85
2021/06/03 03:49:02;;;;;;;;;;;;;;;10.62;62.33;98922.95;1780209;79;24538;-91
2021/06/03 03:51:34;;;;;;;;;;;;;;;10.78;62.36;98925.82;1778440;79;21993;-91
2021/06/03 03:54:00;;;;;;;;;;;;;;;11.04;62.43;98923.31;1780975;79;26047;-88
2021/06/03 03:56:27;;;;;;;;;;;;;;;11.08;62.41;98932.19;1779347;79;24474;-90
2021/06/03 03:58:53;;;;;;;;;;;;;;;11.03;62.36;98922.94;1784028;79;20334;-89
2021/06/03 04:01:22;;;;;;;;;;;;;;;10.99;62.33;98923.61;1782580;79;24544;-89
2021/06/03 04:03:49;;;;;;;;;;;;;;;11.11;62.36;98926.77;1773796;79;21978;-89
2021/06/03 04:06:15;;;;;;;;;;;;;;;11.32;62.41;98929.31;1779398;79;26621;-85
2021/06/03 04:08:41;;;;;;;;;;;;;;;11.43;62.43;98922.53;1776388;79;24431;-85
2021/06/03 04:11:07;;;;;;;;;;;;;;;11.40;62.42;98921.43;1778686;79;20242;-85
2021/06/03 04:13:35;;;;;;;;;;;;;;;11.41;62.45;98921.30;1745764;80;24458;-86
2021/06/03 04:16:02;;;;;;;;;;;;;;;11.51;62.47;98921.56;1782319;79;22206;-86
2021/06/03 04:18:28;;;;;;;;;;;;;;;11.79;62.58;98924.52;1776706;79;25941;-86
2021/06/03 04:20:54;;;;;;;;;;;;;;;12.03;62.59;98929.44;1777555;79;24532;-90
2021/06/03 04:23:20;;;;;;;;;;;;;;;12.18;62.57;98927.54;1721047;80;20241;-89
2021/06/03 04:25:46;;;;;;;;;;;;;;;12.31;62.52;98927.92;1777811;78;25462;-91
2021/06/03 04:28:12;;;;;;;;;;;;;;;12.41;62.46;98929.43;1779481;79;20814;-88
2021/06/03 04:30:40;;;;;;;;;;;;;;;12.41;62.40;98934.67;1773206;79;26151;-88
2021/06/03 04:33:08;;;;;;;;;;;;;;;12.40;62.29;98936.93;1777052;79;24136;-88
2021/06/03 04:35:34;;;;;;;;;;;;;;;12.38;62.19;98931.78;1784786;79;20249;-90
2021/06/03 04:38:00;;;;;;;;;;;;;;;12.34;62.08;98936.03;1780832;79;20282;-90
2021/06/03 04:40:26;;;;;;;;;;;;;;;12.26;62.01;98932.65;1784281;79;20303;-90
2021/06/03 04:42:52;;;;;;;;;;;;;;;12.29;61.98;98938.14;1784516;79;26025;-91
2021/06/03 04:45:23;;;;;;;;;;;;;;;12.34;61.99;98939.50;1756254;80;20235;-90
2021/06/03 04:47:49;;;;;;;;;;;;;;;12.35;61.99;98940.34;1783705;79;20314;-85
2021/06/03 04:50:17;;;;;;;;;;;;;;;12.36;61.98;98948.59;1775821;79;24631;-85
2021/06/03 04:52:43;;;;;;;;;;;;;;;12.38;61.97;98951.47;1780580;79;21960;-90
2021/06/03 04:55:11;;;;;;;;;;;;;;;12.52;62.02;98951.84;1778051;79;25965;-89
2021/06/03 04:57:37;;;;;;;;;;;;;;;12.52;62.04;98951.37;1776903;79;24393;-90
2021/06/03 05:00:05;;;;;;;;;;;;;;;12.53;62.08;98949.11;1782811;79;20382;-89
2021/06/03 05:02:44;;;;;;;;;;;;;;;12.50;62.11;98954.56;1788281;79;23895;-91
2021/06/03 05:05:16;;;;;;;;;;;;;;;12.51;62.11;98960.66;1781731;80;21967;-90
2021/06/03 05:07:42;;;;;;;;;;;;;;;12.52;62.14;98953.15;1720485;82;26106;-89
2021/06/03 05:10:09;;;;;;;;;;;;;;;12.53;62.16;98950.43;1738032;81;24547;-89
2021/06/03 05:12:35;;;;;;;;;;;;;;;12.58;62.14;98952.73;1706592;83;20310;-88
2021/06/03 05:15:01;;;;;;;;;;;;;;;12.63;62.11;98951.94;1738289;82;20241;-89
2021/06/03 05:17:27;;;;;;;;;;;;;;;12.68;62.13;98952.45;1738033;82;20357;-89
2021/06/03 05:19:53;;;;;;;;;;;;;;;12.71;62.12;98954.03;1742218;82;21032;-89
2021/06/03 05:22:21;;;;;;;;;;;;;;;12.79;62.16;98953.00;1742615;82;24548;-89
2021/06/03 05:24:47;;;;;;;;;;;;;;;12.82;62.21;98955.43;1736163;82;20277;-88
2021/06/03 05:27:13;;;;;;;;;;;;;;;12.87;62.24;98959.88;1737971;81;24527;-88
2021/06/03 05:29:39;;;;;;;;;;;;;;;12.94;62.27;98958.48;1738256;82;20404;-89
2021/06/03 05:32:05;;;;;;;;;;;;;;;13.01;62.25;98964.98;1740765;81;25996;-87
2021/06/03 05:34:31;;;;;;;;;;;;;;;13.02;62.25;98965.83;1717253;82;24488;-86
2021/06/03 05:36:58;;;;;;;;;;;;;;;13.13;62.29;98962.83;1717114;82;20170;-86
2021/06/03 05:39:24;;;;;;;;;;;;;;;13.33;62.42;98969.27;1777771;79;24579;-87
2021/06/03 05:41:50;;;;;;;;;;;;;;;13.47;62.45;98977.02;1776640;79;22098;-85
2021/06/03 05:44:17;;;;;;;;;;;;;;;13.52;62.49;98972.25;1779227;79;25854;-85
2021/06/03 05:46:43;;;;;;;;;;;;;;;13.58;62.52;98969.66;1776548;79;24301;-86
2021/06/03 05:49:21;;;;;;;;;;;;;;;13.61;62.58;98982.09;1734855;82;20183;-90
2021/06/03 05:51:50;;;;;;;;;;;;;;;13.51;62.58;98982.41;1747365;81;24459;-86
2021/06/03 05:54:16;;;;;;;;;;;;;;;13.46;62.55;98993.73;1744671;81;22140;-86
2021/06/03 05:56:42;;;;;;;;;;;;;;;13.49;62.58;98989.55;1715383;82;25936;-85
2021/06/03 05:59:08;;;;;;;;;;;;;;;13.53;62.64;98988.88;1781476;79;20614;-86
2021/06/03 06:01:35;;;;;;;;;;;;;;;13.48;62.61;98993.13;1777860;78;20232;-85
2021/06/03 06:06:30;;;;;;;;;;;;;;;13.48;62.57;98990.97;1773655;79;21959;-86
2021/06/03 06:08:58;;;;;;;;;;;;;;;13.52;62.57;98991.98;1774767;79;26772;-86
2021/06/03 06:11:26;;;;;;;;;;;;;;;13.59;62.59;98987.92;1754554;79;25457;-86
2021/06/03 06:13:52;;;;;;;;;;;;;;;13.63;62.59;98993.34;1776255;79;20424;-86
2021/06/03 06:16:19;;;;;;;;;;;;;;;13.69;62.60;98993.38;1777337;79;25376;-89
2021/06/03 06:18:45;;;;;;;;;;;;;;;13.70;62.54;99001.13;1780034;79;22154;-91
2021/06/03 06:21:16;;;;;;;;;;;;;;;13.70;62.51;98999.81;1739160;81;25966;-91
2021/06/03 06:24:00;;;;;;;;;;;;;;;13.71;62.48;99002.81;1741444;81;25405;-91
2021/06/03 06:26:26;;;;;;;;;;;;;;;13.81;62.48;99005.13;1745898;81;20302;-90
2021/06/03 06:28:54;;;;;;;;;;;;;;;13.92;62.49;99004.80;1746382;81;24648;-90
2021/06/03 06:31:21;;;;;;;;;;;;;;;14.05;62.54;99002.95;1743254;80;21981;-89
2021/06/03 06:33:47;;;;;;;;;;;;;;;14.11;62.53;99005.13;1740226;81;25972;-89
2021/06/03 06:36:14;;;;;;;;;;;;;;;14.14;62.49;99008.35;1731262;82;24525;-89
2021/06/03 06:38:40;;;;;;;;;;;;;;;14.15;62.33;99005.25;1734104;82;20228;-89
2021/06/03 06:41:07;;;;;;;;;;;;;;;14.20;62.18;99007.89;1771151;80;24892;-89
2021/06/03 06:43:33;;;;;;;;;;;;;;;14.30;62.06;99011.98;1774145;80;21987;-89
2021/06/03 06:46:00;;;;;;;;;;;;;;;14.40;62.01;99009.54;1771734;80;25974;-89
2021/06/03 06:48:26;;;;;;;;;;;;;;;14.50;61.96;99015.78;1776829;80;24678;-89
2021/06/03 06:50:56;;;;;;;;;;;;;;;14.62;61.92;99018.77;1772528;80;20185;-89
2021/06/03 06:53:28;;;;;;;;;;;;;;;14.77;61.83;99022.03;1772261;80;24533;-88
2021/06/03 06:55:54;;;;;;;;;;;;;;;14.94;61.79;99023.72;1773994;79;21988;-84
2021/06/03 06:58:20;;;;;;;;;;;;;;;15.13;61.72;99020.94;1773458;80;25960;-85
2021/06/03 07:00:46;;;;;;;;;;;;;;;15.22;61.63;99024.99;1772698;80;20303;-85
2021/06/03 07:03:13;;;;;;;;;;;;;;;15.23;61.48;99020.56;1772015;80;20224;-86
2021/06/03 07:05:40;;;;;;;;;;;;;;;15.25;61.31;99018.17;1773829;80;24582;-89
2021/06/03 07:08:12;;;;;;;;;;;;;;;15.36;61.19;99013.36;1772749;79;22081;-88
2021/06/03 07:10:35;;;;;;;;;;;;;;;15.48;61.05;99016.34;1769506;80;25959;-89
2021/06/03 07:13:05;;;;;;;;;;;;;;;15.45;60.74;99013.93;1772203;80;24394;-89
2021/06/03 07:15:32;;;;;;;;;;;;;;;15.42;60.41;99010.23;1771837;80;20272;-89
2021/06/03 07:17:58;;;;;;;;;;;;;;;15.49;60.18;99012.75;1777178;79;24616;-89
2021/06/03 07:20:25;;;;;;;;;;;;;;;15.57;59.90;99016.94;1773208;80;21979;-89
2021/06/03 07:22:53;;;;;;;;;;;;;;;15.62;59.59;99010.80;1770037;80;25963;-89
2021/06/03 07:25:20;;;;;;;;;;;;;;;15.76;59.37;99017.61;1774054;80;24489;-90
2021/06/03 07:27:47;;;;;;;;;;;;;;;15.92;59.24;99015.87;1775050;80;20464;-89
2021/06/03 07:30:14;;;;;;;;;;;;;;;16.04;59.12;99011.71;1772517;80;24529;-88
2021/06/03 07:32:40;;;;;;;;;;;;;;;16.16;59.03;99019.09;1755571;80;21911;-89
2021/06/03 07:35:12;;;;;;;;;;;;;;;16.27;58.96;99015.92;1766911;80;26094;-87
2021/06/03 07:37:37;;;;;;;;;;;;;;;16.37;58.81;99023.06;1768609;80;24421;-86
2021/06/03 07:40:04;;;;;;;;;;;;;;;16.43;58.71;99023.87;1773026;80;20266;-86
2021/06/03 07:42:30;;;;;;;;;;;;;;;16.52;58.73;99015.19;1774245;80;24600;-85
2021/06/03 07:44:56;;;;;;;;;;;;;;;16.65;58.72;99018.47;1764714;79;20217;-88
2021/06/03 07:47:22;;;;;;;;;;;;;;;16.72;58.53;99016.98;1768428;80;26025;-89
2021/06/03 07:49:48;;;;;;;;;;;;;;;16.82;58.35;99019.67;1771752;80;24507;-89
2021/06/03 07:52:15;;;;;;;;;;;;;;;16.89;58.08;99016.38;1768887;80;20257;-89
2021/06/03 07:54:41;;;;;;;;;;;;;;;16.95;57.94;99016.34;1769334;80;24562;-88
2021/06/03 07:57:07;;;;;;;;;;;;;;;17.01;57.77;99021.94;1771609;79;21916;-88
2021/06/03 07:59:33;;;;;;;;;;;;;;;17.09;57.61;99023.89;1771091;80;25936;-90
2021/06/03 08:02:00;;;;;;;;;;;;;;;17.19;57.54;99022.12;1771474;80;24621;-86
2021/06/03 08:04:27;;;;;;;;;;;;;;;17.27;57.36;99016.16;1772204;80;20245;-86
2021/06/03 08:06:54;;;;;;;;;;;;;;;17.43;57.35;99015.16;1769782;80;24678;-89
2021/06/03 08:09:20;;;;;;;;;;;;;;;17.57;57.17;99018.73;1767651;80;22080;-89
2021/06/03 08:11:46;;;;;;;;;;;;;;;17.71;57.08;99023.67;1765776;80;26001;-89
2021/06/03 08:14:13;;;;;;;;;;;;;;;17.82;57.00;99027.52;1775003;80;24465;-86
2021/06/03 08:16:39;;;;;;;;;;;;;;;17.89;56.76;99027.81;1767832;80;20209;-89
2021/06/03 08:19:06;;;;;;;;;;;;;;;17.96;56.57;99030.23;1771654;80;20279;-88
2021/06/03 08:21:34;;;;;;;;;;;;;;;18.00;56.34;99027.67;1767043;80;21980;-90
2021/06/03 08:24:00;;;;;;;;;;;;;;;18.05;56.16;99029.91;1771199;80;26770;-90
2021/06/03 08:26:28;;;;;;;;;;;;;;;18.18;56.11;99019.84;1770659;79;24498;-86
2021/06/03 08:28:57;;;;;;;;;;;;;;;18.33;56.10;99021.07;1767710;80;20269;-85
2021/06/03 08:31:25;;;;;;;;;;;;;;;18.44;55.94;99032.03;1770587;80;24624;-89
2021/06/03 08:33:52;;;;;;;;;;;;;;;18.55;55.81;99026.09;1753036;79;22828;-86
2021/06/03 08:36:23;;;;;;;;;;;;;;;18.72;55.71;99024.03;1783086;79;25988;-87
2021/06/03 08:38:52;;;;;;;;;;;;;;;18.87;55.62;99024.91;1781543;79;25432;-89
2021/06/03 08:41:19;;;;;;;;;;;;;;;18.99;55.49;99029.03;1781139;80;20233;-90
2021/06/03 08:43:46;;;;;;;;;;;;;;;19.11;55.30;99028.70;1780878;79;25130;-87
2021/06/03 08:46:12;;;;;;;;;;;;;;;19.25;55.19;99031.38;1786871;78;21923;-86
2021/06/03 08:48:38;;;;;;;;;;;;;;;19.38;55.03;99026.55;1783113;79;25519;-89
2021/06/03 08:51:06;;;;;;;;;;;;;;;19.47;54.82;99031.02;1720105;83;24524;-86
2021/06/03 08:53:32;;;;;;;;;;;;;;;19.48;54.57;99030.50;1745606;81;20182;-87
2021/06/03 08:56:15;;;;;;;;;;;;;;;19.59;54.43;99031.13;1740662;82;24554;-89
2021/06/03 08:58:46;;;;;;;;;;;;;;;19.71;54.27;99030.43;1738228;82;22154;-89
2021/06/03 09:01:12;;;;;;;;;;;;;;;19.81;54.14;99029.02;1720780;82;26624;-90
2021/06/03 09:03:40;;;;;;;;;;;;;;;19.90;53.97;99030.80;1746889;80;24411;-90
2021/06/03 09:06:06;;;;;;;;;;;;;;;19.91;53.67;99032.48;1743324;82;21032;-90
2021/06/03 09:08:33;;;;;;;;;;;;;;;19.84;53.21;99021.61;1743373;82;24570;-90
2021/06/03 09:11:01;;;;;;;;;;;;;;;19.90;53.02;99026.33;1729999;82;22043;-90
2021/06/03 09:13:34;;;;;;;;;;;;;;;19.95;52.82;99025.37;1728982;82;25910;-87
2021/06/03 09:16:11;;;;;;;;;;;;;;;19.96;52.53;99022.22;1730356;82;25272;-89
2021/06/03 09:18:39;;;;;;;;;;;;;;;19.91;52.14;99023.98;1727296;80;20547;-89
2021/06/03 09:21:25;;;;;;;;;;;;;;;19.94;51.88;99025.52;1730356;81;24914;-89
2021/06/03 09:23:58;;;;;;;;;;;;;;;20.05;51.76;99021.30;1731628;82;22829;-89
2021/06/03 09:26:25;;;;;;;;;;;;;;;20.02;51.47;99018.93;1724714;82;26009;-87
2021/06/03 09:28:53;;;;;;;;;;;;;;;20.10;51.36;99023.00;1724615;82;24510;-86
2021/06/03 09:31:21;;;;;;;;;;;;;;;20.06;51.03;99018.98;1734341;81;20172;-86
2021/06/03 09:33:49;;;;;;;;;;;;;;;20.05;50.76;99016.83;1719407;82;24137;-91
2021/06/03 09:36:16;;;;;;;;;;;;;;;20.15;50.59;99012.75;1687944;83;21966;-90
2021/06/03 09:38:47;;;;;;;;;;;;;;;20.27;50.47;99013.34;1682144;83;26819;-90
2021/06/03 09:41:17;;;;;;;;;;;;;;;20.38;50.36;99014.46;1667514;83;25765;-89
2021/06/03 09:43:46;;;;;;;;;;;;;;;20.37;50.08;99008.30;1697402;83;20268;-90
2021/06/03 09:46:16;;;;;;;;;;;;;;;20.41;49.89;99012.31;1707887;83;24591;-89
2021/06/03 09:48:45;;;;;;;;;;;;;;;20.45;49.74;99013.70;1709320;82;22260;-90
2021/06/03 09:51:19;;;;;;;;;;;;;;;20.49;49.50;99006.23;1729664;82;26785;-89
2021/06/03 09:53:52;;;;;;;;;;;;;;;20.60;49.46;99003.81;1724582;82;25404;-86
2021/06/03 09:56:29;;;;;;;;;;;;;;;20.80;49.52;99003.43;1725363;81;20301;-86
2021/06/03 09:58:56;;;;;;;;;;;;;;;20.94;49.43;99004.68;1725245;81;25297;-86
2021/06/03 10:01:38;;;;;;;;;;;;;;;20.99;49.15;99010.36;1733989;82;21951;-86
2021/06/03 10:04:04;;;;;;;;;;;;;;;21.04;49.06;99007.22;1720687;82;25970;-90
2021/06/03 10:06:30;;;;;;;;;;;;;;;21.02;48.77;99006.53;1725350;82;24585;-89
2021/06/03 10:08:56;;;;;;;;;;;;;;;21.02;48.56;99008.70;1725442;82;20286;-89
2021/06/03 10:11:41;;;;;;;;;;;;;;;21.01;48.38;99001.70;1729425;82;21111;-90
2021/06/03 10:14:08;;;;;;;;;;;;;;;21.01;48.21;98999.53;1728866;82;22169;-89
2021/06/03 10:16:34;;;;;;;;;;;;;;;21.05;48.05;99000.41;1727299;81;25992;-89
2021/06/03 10:19:20;;;;;;;;;;;;;;;21.21;48.13;98993.02;1726074;81;24435;-88
2021/06/03 10:21:48;;;;;;;;;;;;;;;21.38;48.11;98996.58;1727795;81;20220;-88
2021/06/03 10:24:14;;;;;;;;;;;;;;;21.48;47.99;98997.27;1689344;83;24549;-89
2021/06/03 10:26:57;;;;;;;;;;;;;;;21.45;47.71;98996.23;1701866;82;22128;-89
2021/06/03 10:29:23;;;;;;;;;;;;;;;21.47;47.52;98995.59;1702691;83;26157;-88
2021/06/03 10:31:55;;;;;;;;;;;;;;;21.55;47.38;98997.77;1726738;80;24746;-88
2021/06/03 10:34:21;;;;;;;;;;;;;;;21.54;47.12;98996.62;1742490;79;20369;-89
2021/06/03 10:36:51;;;;;;;;;;;;;;;21.61;47.01;98997.12;1785949;79;24577;-89
2021/06/03 10:39:17;;;;;;;;;;;;;;;21.53;46.75;98994.95;1784798;79;22724;-89
2021/06/03 10:41:45;;;;;;;;;;;;;;;21.33;46.49;98997.56;1782601;79;26214;-89
2021/06/03 10:44:17;;;;;;;;;;;;;;;21.13;46.30;98992.45;1782889;79;24456;-89
2021/06/03 10:46:47;;;;;;;;;;;;;;;21.12;46.20;98988.61;1772533;79;20191;-89
2021/06/03 10:49:17;;;;;;;;;;;;;;;21.21;46.20;98997.85;1779136;79;24626;-89
2021/06/03 10:51:43;;;;;;;;;;;;;;;21.35;46.14;98994.22;1778160;79;21828;-89
2021/06/03 10:54:09;;;;;;;;;;;;;;;21.43;45.97;98995.09;1779250;79;21098;-89
2021/06/03 10:56:37;;;;;;;;;;;;;;;21.45;45.78;98990.42;1775969;79;24420;-89
2021/06/03 10:59:05;;;;;;;;;;;;;;;21.58;45.78;98984.14;1778866;79;20353;-89
2021/06/03 11:01:31;;;;;;;;;;;;;;;21.73;45.79;98984.32;1779598;79;25593;-90
2021/06/03 11:04:02;;;;;;;;;;;;;;;21.86;45.70;98977.19;1773229;79;22205;-90
2021/06/03 11:06:35;;;;;;;;;;;;;;;21.80;45.42;98977.34;1778444;78;26226;-90
2021/06/03 11:09:05;;;;;;;;;;;;;;;21.78;45.21;98984.66;1779245;79;24627;-90
2021/06/03 11:11:32;;;;;;;;;;;;;;;21.74;45.03;98991.82;1774494;79;20245;-90
2021/06/03 11:14:00;;;;;;;;;;;;;;;21.80;44.98;98988.50;1781005;79;24665;-89
2021/06/03 11:16:27;;;;;;;;;;;;;;;21.84;44.86;98980.50;1776520;79;22788;-89
2021/06/03 11:18:57;;;;;;;;;;;;;;;21.92;44.71;98975.20;1782033;79;26024;-90
2021/06/03 11:21:42;;;;;;;;;;;;;;;21.91;44.47;98982.36;1752765;79;21264;-89
2021/06/03 11:24:16;;;;;;;;;;;;;;;21.91;44.33;98977.02;1774248;79;20300;-90
2021/06/03 11:26:40;;;;;;;;;;;;;;;21.98;44.17;98973.23;1772820;79;25410;-90
2021/06/03 11:29:10;;;;;;;;;;;;;;;22.04;44.17;98974.71;1778486;79;21974;-90
2021/06/03 11:31:37;;;;;;;;;;;;;;;22.07;44.08;98978.39;1779651;79;26710;-89
2021/06/03 11:34:04;;;;;;;;;;;;;;;22.13;44.03;98970.23;1780787;79;24453;-90
2021/06/03 11:36:31;;;;;;;;;;;;;;;22.25;43.95;98968.06;1775645;79;20355;-90
2021/06/03 11:38:57;;;;;;;;;;;;;;;22.40;43.93;98963.70;1780033;79;25014;-89
2021/06/03 11:41:35;;;;;;;;;;;;;;;22.51;43.71;98966.86;1779160;79;22854;-90
2021/06/03 11:44:16;;;;;;;;;;;;;;;22.50;43.52;98974.52;1785985;79;25984;-89
2021/06/03 11:46:53;;;;;;;;;;;;;;;22.36;43.08;98975.72;1777735;79;24385;-86
2021/06/03 11:49:26;;;;;;;;;;;;;;;22.25;42.81;98970.73;1719278;82;20355;-85
2021/06/03 11:52:12;;;;;;;;;;;;;;;22.14;42.58;98970.57;1711362;82;25348;-85
2021/06/03 11:54:55;;;;;;;;;;;;;;;22.22;42.57;98966.55;1721077;81;22054;-86
2021/06/03 11:57:22;;;;;;;;;;;;;;;22.32;42.49;98967.70;1733137;82;26005;-86
2021/06/03 11:59:59;;;;;;;;;;;;;;;22.39;42.37;98956.70;1736644;82;24453;-86
2021/06/03 12:02:32;;;;;;;;;;;;;;;22.41;42.22;98961.38;1737910;81;20306;-86
2021/06/03 12:05:12;;;;;;;;;;;;;;;22.41;42.07;98960.88;1727302;80;24615;-86
2021/06/03 12:07:43;;;;;;;;;;;;;;;22.40;41.91;98963.70;1740624;79;21987;-86
2021/06/03 12:10:10;;;;;;;;;;;;;;;22.47;41.81;98971.37;1739696;81;26044;-86
2021/06/03 12:12:36;;;;;;;;;;;;;;;22.41;41.54;98964.87;1728221;82;24493;-86
2021/06/03 12:15:04;;;;;;;;;;;;;;;22.29;41.28;98966.72;1733304;82;20250;-87
2021/06/03 12:17:30;;;;;;;;;;;;;;;22.30;41.24;98967.89;1709759;82;24611;-87
2021/06/03 12:20:01;;;;;;;;;;;;;;;22.45;41.35;98962.69;1736293;82;21967;-86
2021/06/03 12:22:32;;;;;;;;;;;;;;;22.48;41.16;98954.34;1711545;81;22924;-87
2021/06/03 12:24:58;;;;;;;;;;;;;;;22.54;41.14;98965.66;1736228;81;24491;-86
2021/06/03 12:27:29;;;;;;;;;;;;;;;22.47;40.84;98958.03;1743340;81;20227;-86
2021/06/03 12:29:57;;;;;;;;;;;;;;;22.43;40.72;98953.52;1733700;82;24230;-87
2021/06/03 12:32:25;;;;;;;;;;;;;;;22.55;40.80;98955.33;1730586;82;21974;-86
2021/06/03 12:34:53;;;;;;;;;;;;;;;22.67;40.72;98950.47;1724620;81;26213;-87
2021/06/03 12:37:25;;;;;;;;;;;;;;;22.66;40.55;98951.47;1709361;83;24612;-91
2021/06/03 12:39:53;;;;;;;;;;;;;;;22.62;40.43;98946.16;1711308;81;20255;-92
2021/06/03 12:42:23;;;;;;;;;;;;;;;22.67;40.35;98951.30;1708836;83;24832;-90
2021/06/03 12:44:56;;;;;;;;;;;;;;;22.69;40.27;98949.31;1711530;81;22164;-90
2021/06/03 12:47:30;;;;;;;;;;;;;;;22.59;39.92;98953.14;1721500;81;26090;-91
2021/06/03 12:50:13;;;;;;;;;;;;;;;22.46;39.76;98942.53;1730424;81;24667;-91
2021/06/03 12:52:40;;;;;;;;;;;;;;;22.45;39.67;98937.35;1711857;83;20239;-92
2021/06/03 12:55:07;;;;;;;;;;;;;;;22.52;39.68;98943.68;1716967;81;24510;-91
2021/06/03 12:57:34;;;;;;;;;;;;;;;22.52;39.56;98939.18;1720352;82;21988;-88